sensor_id;sensor_type;location;lat;lon;timestamp;P1;durP1;ratioP1;P2;durP2;ratioP2
65936;SDS011;52707;52.086;5.418;2024-02-21T00:01:56;13.15;;;4.57;;
65936;SDS011;52707;52.086;5.418;2024-02-21T00:04:22;14.55;;;4.38;;
65936;SDS011;52707;52.086;5.418;2024-02-21T00:06:49;12.30;;;4.65;;
65936;SDS011;52707;52.086;5.418;2024-02-21T00:09:15;16.80;;;4.20;;
65936;SDS011;52707;52.086;5.418;2024-02-21T00:11:41;16.63;;;4.53;;
65936;SDS011;52707;52.086;5.418;2024-02-21T00:14:08;14.98;;;4.47;;
65936;SDS011;52707;52.086;5.418;2024-02-21T00:16:34;16.33;;;4.50;;
65936;SDS011;52707;52.086;5.418;2024-02-21T00:19:00;21.83;;;5.03;;
65936;SDS011;52707;52.086;5.418;2024-02-21T00:21:27;15.80;;;4.05;;
65936;SDS011;52707;52.086;5.418;2024-02-21T00:23:53;15.15;;;4.05;;
65936;SDS011;52707;52.086;5.418;2024-02-21T00:26:26;23.63;;;4.00;;
65936;SDS011;52707;52.086;5.418;2024-02-21T00:28:52;13.65;;;3.72;;
65936;SDS011;52707;52.086;5.418;2024-02-21T00:31:19;15.23;;;4.45;;
65936;SDS011;52707;52.086;5.418;2024-02-21T00:33:45;14.82;;;4.25;;
65936;SDS011;52707;52.086;5.418;2024-02-21T00:36:12;10.93;;;3.67;;
65936;SDS011;52707;52.086;5.418;2024-02-21T00:38:38;19.52;;;4.97;;
65936;SDS011;52707;52.086;5.418;2024-02-21T00:41:04;17.20;;;4.30;;
65936;SDS011;52707;52.086;5.418;2024-02-21T00:43:31;17.65;;;4.20;;
65936;SDS011;52707;52.086;5.418;2024-02-21T00:45:57;17.10;;;4.07;;
65936;SDS011;52707;52.086;5.418;2024-02-21T00:48:24;19.80;;;5.25;;
65936;SDS011;52707;52.086;5.418;2024-02-21T00:50:50;24.63;;;4.65;;
65936;SDS011;52707;52.086;5.418;2024-02-21T00:53:17;18.80;;;3.78;;
65936;SDS011;52707;52.086;5.418;2024-02-21T00:55:43;13.13;;;4.05;;
65936;SDS011;52707;52.086;5.418;2024-02-21T00:58:09;20.20;;;4.55;;
65936;SDS011;52707;52.086;5.418;2024-02-21T01:00:36;21.70;;;4.70;;
65936;SDS011;52707;52.086;5.418;2024-02-21T01:03:02;18.30;;;4.32;;
65936;SDS011;52707;52.086;5.418;2024-02-21T01:05:29;20.63;;;4.32;;
65936;SDS011;52707;52.086;5.418;2024-02-21T01:07:55;15.60;;;3.83;;
65936;SDS011;52707;52.086;5.418;2024-02-21T01:10:21;12.00;;;3.65;;
65936;SDS011;52707;52.086;5.418;2024-02-21T01:12:49;15.90;;;3.70;;
65936;SDS011;52707;52.086;5.418;2024-02-21T01:15:15;14.05;;;4.03;;
65936;SDS011;52707;52.086;5.418;2024-02-21T01:17:41;13.90;;;3.40;;
65936;SDS011;52707;52.086;5.418;2024-02-21T01:20:08;13.07;;;4.13;;
65936;SDS011;52707;52.086;5.418;2024-02-21T01:22:35;18.10;;;3.90;;
65936;SDS011;52707;52.086;5.418;2024-02-21T01:25:01;10.35;;;3.53;;
65936;SDS011;52707;52.086;5.418;2024-02-21T01:27:27;18.45;;;4.93;;
65936;SDS011;52707;52.086;5.418;2024-02-21T01:29:53;17.98;;;4.07;;
65936;SDS011;52707;52.086;5.418;2024-02-21T01:32:20;19.60;;;4.80;;
65936;SDS011;52707;52.086;5.418;2024-02-21T01:34:47;14.85;;;4.07;;
65936;SDS011;52707;52.086;5.418;2024-02-21T01:37:14;15.02;;;3.88;;
65936;SDS011;52707;52.086;5.418;2024-02-21T01:39:41;12.32;;;4.40;;
65936;SDS011;52707;52.086;5.418;2024-02-21T01:42:07;10.32;;;4.30;;
65936;SDS011;52707;52.086;5.418;2024-02-21T01:44:35;20.48;;;4.63;;
65936;SDS011;52707;52.086;5.418;2024-02-21T01:47:02;21.92;;;4.82;;
65936;SDS011;52707;52.086;5.418;2024-02-21T01:49:28;14.30;;;5.07;;
65936;SDS011;52707;52.086;5.418;2024-02-21T01:51:55;22.88;;;5.07;;
65936;SDS011;52707;52.086;5.418;2024-02-21T01:54:22;17.08;;;5.50;;
65936;SDS011;52707;52.086;5.418;2024-02-21T01:56:48;13.50;;;4.65;;
65936;SDS011;52707;52.086;5.418;2024-02-21T01:59:15;18.20;;;4.85;;
65936;SDS011;52707;52.086;5.418;2024-02-21T02:01:42;20.73;;;4.50;;
65936;SDS011;52707;52.086;5.418;2024-02-21T02:04:09;18.52;;;4.38;;
65936;SDS011;52707;52.086;5.418;2024-02-21T02:06:36;18.50;;;4.63;;
65936;SDS011;52707;52.086;5.418;2024-02-21T02:09:02;12.35;;;4.18;;
65936;SDS011;52707;52.086;5.418;2024-02-21T02:11:28;14.23;;;4.40;;
65936;SDS011;52707;52.086;5.418;2024-02-21T02:13:55;27.77;;;4.78;;
65936;SDS011;52707;52.086;5.418;2024-02-21T02:16:21;19.45;;;4.82;;
65936;SDS011;52707;52.086;5.418;2024-02-21T02:18:48;16.98;;;4.75;;
65936;SDS011;52707;52.086;5.418;2024-02-21T02:21:21;20.92;;;5.25;;
65936;SDS011;52707;52.086;5.418;2024-02-21T02:23:49;14.30;;;5.18;;
65936;SDS011;52707;52.086;5.418;2024-02-21T02:26:15;26.80;;;5.55;;
65936;SDS011;52707;52.086;5.418;2024-02-21T02:28:42;18.30;;;4.72;;
65936;SDS011;52707;52.086;5.418;2024-02-21T02:31:08;17.13;;;4.72;;
65936;SDS011;52707;52.086;5.418;2024-02-21T02:33:34;22.55;;;5.80;;
65936;SDS011;52707;52.086;5.418;2024-02-21T02:36:01;21.77;;;5.47;;
65936;SDS011;52707;52.086;5.418;2024-02-21T02:38:27;23.30;;;5.18;;
65936;SDS011;52707;52.086;5.418;2024-02-21T02:40:54;17.98;;;4.75;;
65936;SDS011;52707;52.086;5.418;2024-02-21T02:43:20;19.42;;;5.55;;
65936;SDS011;52707;52.086;5.418;2024-02-21T02:45:47;18.55;;;5.90;;
65936;SDS011;52707;52.086;5.418;2024-02-21T02:48:13;23.60;;;5.07;;
65936;SDS011;52707;52.086;5.418;2024-02-21T02:50:39;16.58;;;4.95;;
65936;SDS011;52707;52.086;5.418;2024-02-21T02:53:06;19.73;;;4.30;;
65936;SDS011;52707;52.086;5.418;2024-02-21T02:55:32;12.45;;;4.85;;
65936;SDS011;52707;52.086;5.418;2024-02-21T02:57:58;17.58;;;5.15;;
65936;SDS011;52707;52.086;5.418;2024-02-21T03:00:25;15.93;;;4.78;;
65936;SDS011;52707;52.086;5.418;2024-02-21T03:02:51;15.95;;;4.80;;
65936;SDS011;52707;52.086;5.418;2024-02-21T03:05:19;27.10;;;5.93;;
65936;SDS011;52707;52.086;5.418;2024-02-21T03:07:46;20.55;;;4.53;;
65936;SDS011;52707;52.086;5.418;2024-02-21T03:10:13;21.92;;;5.65;;
65936;SDS011;52707;52.086;5.418;2024-02-21T03:12:40;16.02;;;5.13;;
65936;SDS011;52707;52.086;5.418;2024-02-21T03:15:06;20.30;;;4.90;;
65936;SDS011;52707;52.086;5.418;2024-02-21T03:17:33;16.00;;;6.03;;
65936;SDS011;52707;52.086;5.418;2024-02-21T03:20:02;21.63;;;5.85;;
65936;SDS011;52707;52.086;5.418;2024-02-21T03:22:32;20.97;;;5.53;;
65936;SDS011;52707;52.086;5.418;2024-02-21T03:25:01;16.60;;;5.22;;
65936;SDS011;52707;52.086;5.418;2024-02-21T03:27:28;18.27;;;6.10;;
65936;SDS011;52707;52.086;5.418;2024-02-21T03:29:54;18.23;;;5.65;;
65936;SDS011;52707;52.086;5.418;2024-02-21T03:32:20;18.23;;;5.05;;
65936;SDS011;52707;52.086;5.418;2024-02-21T03:34:47;19.40;;;5.25;;
65936;SDS011;52707;52.086;5.418;2024-02-21T03:37:13;15.57;;;6.13;;
65936;SDS011;52707;52.086;5.418;2024-02-21T03:39:40;31.92;;;6.00;;
65936;SDS011;52707;52.086;5.418;2024-02-21T03:42:06;15.77;;;5.05;;
65936;SDS011;52707;52.086;5.418;2024-02-21T03:44:33;20.52;;;4.68;;
65936;SDS011;52707;52.086;5.418;2024-02-21T03:46:59;15.98;;;4.93;;
65936;SDS011;52707;52.086;5.418;2024-02-21T03:49:26;28.08;;;5.53;;
65936;SDS011;52707;52.086;5.418;2024-02-21T03:51:53;16.38;;;5.28;;
65936;SDS011;52707;52.086;5.418;2024-02-21T03:54:19;21.55;;;5.70;;
65936;SDS011;52707;52.086;5.418;2024-02-21T03:56:45;10.80;;;5.10;;
65936;SDS011;52707;52.086;5.418;2024-02-21T03:59:13;17.10;;;5.50;;
65936;SDS011;52707;52.086;5.418;2024-02-21T04:01:40;19.63;;;5.50;;
65936;SDS011;52707;52.086;5.418;2024-02-21T04:04:06;18.23;;;5.53;;
65936;SDS011;52707;52.086;5.418;2024-02-21T04:06:33;19.80;;;5.85;;
65936;SDS011;52707;52.086;5.418;2024-02-21T04:08:59;18.50;;;5.28;;
65936;SDS011;52707;52.086;5.418;2024-02-21T04:11:25;16.92;;;5.80;;
65936;SDS011;52707;52.086;5.418;2024-02-21T04:13:52;12.57;;;5.18;;
65936;SDS011;52707;52.086;5.418;2024-02-21T04:16:18;20.08;;;6.00;;
65936;SDS011;52707;52.086;5.418;2024-02-21T04:18:45;18.50;;;5.45;;
65936;SDS011;52707;52.086;5.418;2024-02-21T04:21:14;21.15;;;5.78;;
65936;SDS011;52707;52.086;5.418;2024-02-21T04:23:41;20.20;;;6.35;;
65936;SDS011;52707;52.086;5.418;2024-02-21T04:26:08;13.65;;;6.22;;
65936;SDS011;52707;52.086;5.418;2024-02-21T04:28:34;13.25;;;6.28;;
65936;SDS011;52707;52.086;5.418;2024-02-21T04:31:00;9.27;;;4.93;;
65936;SDS011;52707;52.086;5.418;2024-02-21T04:33:27;13.68;;;5.00;;
65936;SDS011;52707;52.086;5.418;2024-02-21T04:35:53;22.05;;;5.68;;
65936;SDS011;52707;52.086;5.418;2024-02-21T04:38:21;12.43;;;5.45;;
65936;SDS011;52707;52.086;5.418;2024-02-21T04:40:47;10.98;;;5.03;;
65936;SDS011;52707;52.086;5.418;2024-02-21T04:43:14;16.42;;;4.97;;
65936;SDS011;52707;52.086;5.418;2024-02-21T04:45:40;14.88;;;4.93;;
65936;SDS011;52707;52.086;5.418;2024-02-21T04:48:07;13.80;;;5.78;;
65936;SDS011;52707;52.086;5.418;2024-02-21T04:50:33;12.18;;;5.55;;
65936;SDS011;52707;52.086;5.418;2024-02-21T04:53:00;16.23;;;5.95;;
65936;SDS011;52707;52.086;5.418;2024-02-21T04:55:26;20.20;;;6.47;;
65936;SDS011;52707;52.086;5.418;2024-02-21T04:57:52;16.60;;;6.13;;
65936;SDS011;52707;52.086;5.418;2024-02-21T05:00:19;15.80;;;5.93;;
65936;SDS011;52707;52.086;5.418;2024-02-21T05:02:45;12.60;;;5.78;;
65936;SDS011;52707;52.086;5.418;2024-02-21T05:05:11;10.85;;;6.03;;
65936;SDS011;52707;52.086;5.418;2024-02-21T05:07:38;20.02;;;6.30;;
65936;SDS011;52707;52.086;5.418;2024-02-21T05:10:04;12.57;;;6.05;;
65936;SDS011;52707;52.086;5.418;2024-02-21T05:12:31;16.02;;;6.05;;
65936;SDS011;52707;52.086;5.418;2024-02-21T05:14:57;11.20;;;5.25;;
65936;SDS011;52707;52.086;5.418;2024-02-21T05:17:24;18.25;;;5.72;;
65936;SDS011;52707;52.086;5.418;2024-02-21T05:19:50;17.73;;;6.95;;
65936;SDS011;52707;52.086;5.418;2024-02-21T05:22:17;14.13;;;5.85;;
65936;SDS011;52707;52.086;5.418;2024-02-21T05:24:43;9.88;;;5.28;;
65936;SDS011;52707;52.086;5.418;2024-02-21T05:27:10;11.13;;;5.75;;
65936;SDS011;52707;52.086;5.418;2024-02-21T05:29:36;10.88;;;5.60;;
65936;SDS011;52707;52.086;5.418;2024-02-21T05:32:02;15.10;;;5.90;;
65936;SDS011;52707;52.086;5.418;2024-02-21T05:34:29;15.85;;;6.05;;
65936;SDS011;52707;52.086;5.418;2024-02-21T05:36:55;15.68;;;5.90;;
65936;SDS011;52707;52.086;5.418;2024-02-21T05:39:23;16.65;;;6.03;;
65936;SDS011;52707;52.086;5.418;2024-02-21T05:41:50;15.75;;;5.57;;
65936;SDS011;52707;52.086;5.418;2024-02-21T05:44:17;13.50;;;5.47;;
65936;SDS011;52707;52.086;5.418;2024-02-21T05:46:43;16.23;;;5.80;;
65936;SDS011;52707;52.086;5.418;2024-02-21T05:49:10;15.07;;;5.53;;
65936;SDS011;52707;52.086;5.418;2024-02-21T05:51:36;13.98;;;6.63;;
65936;SDS011;52707;52.086;5.418;2024-02-21T05:54:02;21.60;;;7.13;;
65936;SDS011;52707;52.086;5.418;2024-02-21T05:56:29;13.15;;;6.90;;
65936;SDS011;52707;52.086;5.418;2024-02-21T05:58:55;22.40;;;7.13;;
65936;SDS011;52707;52.086;5.418;2024-02-21T06:01:22;14.50;;;6.47;;
65936;SDS011;52707;52.086;5.418;2024-02-21T06:03:49;22.02;;;7.55;;
65936;SDS011;52707;52.086;5.418;2024-02-21T06:06:15;23.27;;;7.50;;
65936;SDS011;52707;52.086;5.418;2024-02-21T06:08:42;18.50;;;7.30;;
65936;SDS011;52707;52.086;5.418;2024-02-21T06:11:08;13.23;;;7.63;;
65936;SDS011;52707;52.086;5.418;2024-02-21T06:13:37;14.55;;;7.30;;
65936;SDS011;52707;52.086;5.418;2024-02-21T06:16:04;18.08;;;8.25;;
65936;SDS011;52707;52.086;5.418;2024-02-21T06:18:31;22.88;;;8.57;;
65936;SDS011;52707;52.086;5.418;2024-02-21T06:20:57;24.92;;;9.75;;
65936;SDS011;52707;52.086;5.418;2024-02-21T06:23:24;20.48;;;9.43;;
65936;SDS011;52707;52.086;5.418;2024-02-21T06:25:50;19.65;;;9.57;;
65936;SDS011;52707;52.086;5.418;2024-02-21T06:28:16;29.27;;;10.63;;
65936;SDS011;52707;52.086;5.418;2024-02-21T06:30:43;22.85;;;10.13;;
65936;SDS011;52707;52.086;5.418;2024-02-21T06:33:09;23.27;;;9.95;;
65936;SDS011;52707;52.086;5.418;2024-02-21T06:35:36;27.77;;;11.07;;
65936;SDS011;52707;52.086;5.418;2024-02-21T06:38:03;24.92;;;10.73;;
65936;SDS011;52707;52.086;5.418;2024-02-21T06:40:30;22.10;;;10.60;;
65936;SDS011;52707;52.086;5.418;2024-02-21T06:43:04;29.70;;;11.68;;
65936;SDS011;52707;52.086;5.418;2024-02-21T06:45:30;34.17;;;12.50;;
65936;SDS011;52707;52.086;5.418;2024-02-21T06:47:57;25.83;;;12.25;;
65936;SDS011;52707;52.086;5.418;2024-02-21T06:50:24;31.38;;;12.43;;
65936;SDS011;52707;52.086;5.418;2024-02-21T06:52:50;30.25;;;12.45;;
65936;SDS011;52707;52.086;5.418;2024-02-21T06:55:16;31.63;;;13.27;;
65936;SDS011;52707;52.086;5.418;2024-02-21T06:57:43;30.50;;;12.70;;
65936;SDS011;52707;52.086;5.418;2024-02-21T07:00:09;37.40;;;13.10;;
65936;SDS011;52707;52.086;5.418;2024-02-21T07:02:36;29.67;;;13.00;;
65936;SDS011;52707;52.086;5.418;2024-02-21T07:05:02;33.17;;;12.60;;
65936;SDS011;52707;52.086;5.418;2024-02-21T07:07:29;27.45;;;11.60;;
65936;SDS011;52707;52.086;5.418;2024-02-21T07:09:56;29.10;;;11.20;;
65936;SDS011;52707;52.086;5.418;2024-02-21T07:12:22;30.50;;;10.95;;
65936;SDS011;52707;52.086;5.418;2024-02-21T07:14:48;29.38;;;10.88;;
65936;SDS011;52707;52.086;5.418;2024-02-21T07:17:15;25.85;;;10.43;;
65936;SDS011;52707;52.086;5.418;2024-02-21T07:19:41;27.27;;;10.90;;
65936;SDS011;52707;52.086;5.418;2024-02-21T07:22:08;27.20;;;10.48;;
65936;SDS011;52707;52.086;5.418;2024-02-21T07:24:35;28.30;;;10.20;;
65936;SDS011;52707;52.086;5.418;2024-02-21T07:27:01;25.55;;;10.07;;
65936;SDS011;52707;52.086;5.418;2024-02-21T07:29:30;30.30;;;10.60;;
65936;SDS011;52707;52.086;5.418;2024-02-21T07:31:57;24.40;;;9.30;;
65936;SDS011;52707;52.086;5.418;2024-02-21T07:34:24;25.60;;;9.90;;
65936;SDS011;52707;52.086;5.418;2024-02-21T07:36:50;24.90;;;10.15;;
65936;SDS011;52707;52.086;5.418;2024-02-21T07:39:16;22.25;;;9.02;;
65936;SDS011;52707;52.086;5.418;2024-02-21T07:41:43;27.10;;;9.90;;
65936;SDS011;52707;52.086;5.418;2024-02-21T07:44:12;19.00;;;9.13;;
65936;SDS011;52707;52.086;5.418;2024-02-21T07:46:39;18.83;;;8.85;;
65936;SDS011;52707;52.086;5.418;2024-02-21T07:49:05;20.98;;;8.48;;
65936;SDS011;52707;52.086;5.418;2024-02-21T07:51:31;25.08;;;8.98;;
65936;SDS011;52707;52.086;5.418;2024-02-21T07:53:58;22.02;;;9.35;;
65936;SDS011;52707;52.086;5.418;2024-02-21T07:56:27;22.05;;;9.20;;
65936;SDS011;52707;52.086;5.418;2024-02-21T07:58:53;20.58;;;9.18;;
65936;SDS011;52707;52.086;5.418;2024-02-21T08:01:20;25.67;;;9.93;;
65936;SDS011;52707;52.086;5.418;2024-02-21T08:03:49;17.48;;;8.88;;
65936;SDS011;52707;52.086;5.418;2024-02-21T08:06:15;21.30;;;8.45;;
65936;SDS011;52707;52.086;5.418;2024-02-21T08:08:42;24.17;;;9.68;;
65936;SDS011;52707;52.086;5.418;2024-02-21T08:11:08;27.38;;;10.02;;
65936;SDS011;52707;52.086;5.418;2024-02-21T08:13:35;18.85;;;9.32;;
65936;SDS011;52707;52.086;5.418;2024-02-21T08:16:01;23.08;;;9.50;;
65936;SDS011;52707;52.086;5.418;2024-02-21T08:18:28;21.77;;;9.10;;
65936;SDS011;52707;52.086;5.418;2024-02-21T08:20:55;20.17;;;9.13;;
65936;SDS011;52707;52.086;5.418;2024-02-21T08:23:22;23.05;;;9.70;;
65936;SDS011;52707;52.086;5.418;2024-02-21T08:25:49;34.80;;;10.60;;
65936;SDS011;52707;52.086;5.418;2024-02-21T08:28:16;18.20;;;9.25;;
65936;SDS011;52707;52.086;5.418;2024-02-21T08:30:42;22.90;;;9.65;;
65936;SDS011;52707;52.086;5.418;2024-02-21T08:33:15;21.65;;;9.68;;
65936;SDS011;52707;52.086;5.418;2024-02-21T08:35:41;21.83;;;9.23;;
65936;SDS011;52707;52.086;5.418;2024-02-21T08:38:08;23.70;;;9.82;;
65936;SDS011;52707;52.086;5.418;2024-02-21T08:40:34;23.58;;;9.57;;
65936;SDS011;52707;52.086;5.418;2024-02-21T08:43:01;17.52;;;9.55;;
65936;SDS011;52707;52.086;5.418;2024-02-21T08:45:28;23.92;;;10.43;;
65936;SDS011;52707;52.086;5.418;2024-02-21T08:47:54;24.67;;;9.88;;
65936;SDS011;52707;52.086;5.418;2024-02-21T08:50:20;23.08;;;10.57;;
65936;SDS011;52707;52.086;5.418;2024-02-21T08:52:54;23.13;;;8.80;;
65936;SDS011;52707;52.086;5.418;2024-02-21T08:55:21;19.77;;;8.75;;
65936;SDS011;52707;52.086;5.418;2024-02-21T08:57:48;21.85;;;8.73;;
65936;SDS011;52707;52.086;5.418;2024-02-21T09:00:14;20.98;;;8.93;;
65936;SDS011;52707;52.086;5.418;2024-02-21T09:02:41;21.85;;;8.77;;
65936;SDS011;52707;52.086;5.418;2024-02-21T09:05:09;18.95;;;8.60;;
65936;SDS011;52707;52.086;5.418;2024-02-21T09:07:36;20.80;;;8.23;;
65936;SDS011;52707;52.086;5.418;2024-02-21T09:10:02;24.60;;;8.75;;
65936;SDS011;52707;52.086;5.418;2024-02-21T09:12:29;21.52;;;7.82;;
65936;SDS011;52707;52.086;5.418;2024-02-21T09:14:56;15.77;;;8.63;;
65936;SDS011;52707;52.086;5.418;2024-02-21T09:17:22;19.48;;;8.45;;
65936;SDS011;52707;52.086;5.418;2024-02-21T09:19:49;24.10;;;7.57;;
65936;SDS011;52707;52.086;5.418;2024-02-21T09:22:15;17.13;;;7.75;;
65936;SDS011;52707;52.086;5.418;2024-02-21T09:24:41;24.45;;;8.48;;
65936;SDS011;52707;52.086;5.418;2024-02-21T09:27:08;18.17;;;7.78;;
65936;SDS011;52707;52.086;5.418;2024-02-21T09:29:34;24.05;;;8.70;;
65936;SDS011;52707;52.086;5.418;2024-02-21T09:32:02;19.00;;;7.80;;
65936;SDS011;52707;52.086;5.418;2024-02-21T09:34:29;17.25;;;7.65;;
65936;SDS011;52707;52.086;5.418;2024-02-21T09:36:56;17.75;;;7.70;;
65936;SDS011;52707;52.086;5.418;2024-02-21T09:39:22;13.18;;;6.60;;
65936;SDS011;52707;52.086;5.418;2024-02-21T09:41:50;19.92;;;7.78;;
65936;SDS011;52707;52.086;5.418;2024-02-21T09:44:21;16.33;;;6.82;;
65936;SDS011;52707;52.086;5.418;2024-02-21T09:49:33;17.13;;;7.40;;
65936;SDS011;52707;52.086;5.418;2024-02-21T09:52:01;20.80;;;7.22;;
65936;SDS011;52707;52.086;5.418;2024-02-21T09:54:29;15.45;;;6.72;;
65936;SDS011;52707;52.086;5.418;2024-02-21T09:57:02;11.70;;;6.38;;
65936;SDS011;52707;52.086;5.418;2024-02-21T09:59:30;14.38;;;6.45;;
65936;SDS011;52707;52.086;5.418;2024-02-21T10:01:57;15.27;;;6.60;;
65936;SDS011;52707;52.086;5.418;2024-02-21T10:04:26;15.10;;;6.40;;
65936;SDS011;52707;52.086;5.418;2024-02-21T10:06:55;18.90;;;6.68;;
65936;SDS011;52707;52.086;5.418;2024-02-21T10:09:22;11.88;;;5.75;;
65936;SDS011;52707;52.086;5.418;2024-02-21T10:11:50;17.70;;;6.97;;
65936;SDS011;52707;52.086;5.418;2024-02-21T10:14:17;13.90;;;6.45;;
65936;SDS011;52707;52.086;5.418;2024-02-21T10:16:47;12.45;;;6.18;;
65936;SDS011;52707;52.086;5.418;2024-02-21T10:19:17;12.05;;;5.55;;
65936;SDS011;52707;52.086;5.418;2024-02-21T10:21:45;12.00;;;5.25;;
65936;SDS011;52707;52.086;5.418;2024-02-21T10:24:29;8.02;;;5.22;;
65936;SDS011;52707;52.086;5.418;2024-02-21T10:27:06;16.27;;;6.15;;
65936;SDS011;52707;52.086;5.418;2024-02-21T10:29:35;13.10;;;6.00;;
65936;SDS011;52707;52.086;5.418;2024-02-21T10:32:08;14.98;;;4.30;;
65936;SDS011;52707;52.086;5.418;2024-02-21T10:34:35;11.20;;;4.63;;
65936;SDS011;52707;52.086;5.418;2024-02-21T10:37:02;8.20;;;4.93;;
65936;SDS011;52707;52.086;5.418;2024-02-21T10:39:33;9.60;;;5.00;;
65936;SDS011;52707;52.086;5.418;2024-02-21T10:42:00;8.13;;;4.28;;
65936;SDS011;52707;52.086;5.418;2024-02-21T10:44:33;12.80;;;4.80;;
65936;SDS011;52707;52.086;5.418;2024-02-21T10:46:59;9.67;;;3.87;;
65936;SDS011;52707;52.086;5.418;2024-02-21T10:49:29;9.85;;;4.55;;
65936;SDS011;52707;52.086;5.418;2024-02-21T10:54:53;9.30;;;4.50;;
65936;SDS011;52707;52.086;5.418;2024-02-21T10:57:22;8.00;;;4.57;;
65936;SDS011;52707;52.086;5.418;2024-02-21T10:59:48;8.27;;;5.05;;
65936;SDS011;52707;52.086;5.418;2024-02-21T11:02:15;9.88;;;4.78;;
65936;SDS011;52707;52.086;5.418;2024-02-21T11:04:42;13.80;;;5.60;;
65936;SDS011;52707;52.086;5.418;2024-02-21T11:07:09;8.93;;;5.32;;
65936;SDS011;52707;52.086;5.418;2024-02-21T11:09:37;9.90;;;5.63;;
65936;SDS011;52707;52.086;5.418;2024-02-21T11:12:04;13.23;;;6.35;;
65936;SDS011;52707;52.086;5.418;2024-02-21T11:14:31;9.27;;;5.32;;
65936;SDS011;52707;52.086;5.418;2024-02-21T11:17:15;10.20;;;5.43;;
65936;SDS011;52707;52.086;5.418;2024-02-21T11:19:42;8.57;;;5.55;;
65936;SDS011;52707;52.086;5.418;2024-02-21T11:22:19;8.80;;;5.85;;
65936;SDS011;52707;52.086;5.418;2024-02-21T11:24:46;9.13;;;5.57;;
65936;SDS011;52707;52.086;5.418;2024-02-21T11:27:14;10.07;;;6.28;;
65936;SDS011;52707;52.086;5.418;2024-02-21T11:29:47;12.68;;;5.78;;
65936;SDS011;52707;52.086;5.418;2024-02-21T11:32:17;12.32;;;5.85;;
65936;SDS011;52707;52.086;5.418;2024-02-21T11:34:58;9.57;;;5.53;;
65936;SDS011;52707;52.086;5.418;2024-02-21T11:37:34;11.77;;;5.28;;
65936;SDS011;52707;52.086;5.418;2024-02-21T11:40:03;8.82;;;5.93;;
65936;SDS011;52707;52.086;5.418;2024-02-21T11:42:30;9.38;;;5.70;;
65936;SDS011;52707;52.086;5.418;2024-02-21T11:44:56;10.32;;;6.20;;
65936;SDS011;52707;52.086;5.418;2024-02-21T11:47:23;11.57;;;6.28;;
65936;SDS011;52707;52.086;5.418;2024-02-21T11:49:50;12.40;;;5.55;;
65936;SDS011;52707;52.086;5.418;2024-02-21T11:52:24;16.17;;;6.15;;
65936;SDS011;52707;52.086;5.418;2024-02-21T11:54:52;10.10;;;6.40;;
65936;SDS011;52707;52.086;5.418;2024-02-21T11:57:19;11.55;;;6.28;;
65936;SDS011;52707;52.086;5.418;2024-02-21T11:59:46;10.80;;;6.78;;
65936;SDS011;52707;52.086;5.418;2024-02-21T12:02:18;15.93;;;6.82;;
65936;SDS011;52707;52.086;5.418;2024-02-21T12:04:44;12.63;;;5.82;;
65936;SDS011;52707;52.086;5.418;2024-02-21T12:07:11;13.38;;;6.22;;
65936;SDS011;52707;52.086;5.418;2024-02-21T12:09:38;18.27;;;5.93;;
65936;SDS011;52707;52.086;5.418;2024-02-21T12:12:04;10.65;;;5.63;;
65936;SDS011;52707;52.086;5.418;2024-02-21T12:14:32;14.15;;;5.93;;
65936;SDS011;52707;52.086;5.418;2024-02-21T12:16:59;20.33;;;5.85;;
65936;SDS011;52707;52.086;5.418;2024-02-21T12:19:28;18.08;;;5.35;;
65936;SDS011;52707;52.086;5.418;2024-02-21T12:21:55;14.63;;;5.72;;
65936;SDS011;52707;52.086;5.418;2024-02-21T12:24:24;10.32;;;4.88;;
65936;SDS011;52707;52.086;5.418;2024-02-21T12:26:51;9.55;;;4.82;;
65936;SDS011;52707;52.086;5.418;2024-02-21T12:29:19;10.05;;;5.10;;
65936;SDS011;52707;52.086;5.418;2024-02-21T12:31:45;7.63;;;4.72;;
65936;SDS011;52707;52.086;5.418;2024-02-21T12:34:13;12.13;;;5.20;;
65936;SDS011;52707;52.086;5.418;2024-02-21T12:36:41;8.77;;;4.72;;
65936;SDS011;52707;52.086;5.418;2024-02-21T12:39:11;11.38;;;5.05;;
65936;SDS011;52707;52.086;5.418;2024-02-21T12:41:38;8.10;;;4.50;;
65936;SDS011;52707;52.086;5.418;2024-02-21T12:44:05;14.25;;;5.07;;
65936;SDS011;52707;52.086;5.418;2024-02-21T12:46:33;12.35;;;5.13;;
65936;SDS011;52707;52.086;5.418;2024-02-21T12:49:00;12.40;;;4.63;;
65936;SDS011;52707;52.086;5.418;2024-02-21T12:51:27;9.63;;;4.93;;
65936;SDS011;52707;52.086;5.418;2024-02-21T12:53:53;9.70;;;4.30;;
65936;SDS011;52707;52.086;5.418;2024-02-21T12:56:20;9.93;;;4.43;;
65936;SDS011;52707;52.086;5.418;2024-02-21T12:58:47;11.57;;;4.47;;
65936;SDS011;52707;52.086;5.418;2024-02-21T13:01:13;17.23;;;5.35;;
65936;SDS011;52707;52.086;5.418;2024-02-21T13:03:40;8.75;;;4.78;;
65936;SDS011;52707;52.086;5.418;2024-02-21T13:06:06;8.85;;;4.43;;
65936;SDS011;52707;52.086;5.418;2024-02-21T13:08:37;8.73;;;5.28;;
65936;SDS011;52707;52.086;5.418;2024-02-21T13:11:03;10.25;;;4.05;;
65936;SDS011;52707;52.086;5.418;2024-02-21T13:13:30;8.77;;;4.10;;
65936;SDS011;52707;52.086;5.418;2024-02-21T13:15:57;9.13;;;4.07;;
65936;SDS011;52707;52.086;5.418;2024-02-21T13:18:23;10.00;;;3.85;;
65936;SDS011;52707;52.086;5.418;2024-02-21T13:20:50;10.68;;;4.03;;
65936;SDS011;52707;52.086;5.418;2024-02-21T13:23:16;12.43;;;4.30;;
65936;SDS011;52707;52.086;5.418;2024-02-21T13:25:43;8.95;;;3.70;;
65936;SDS011;52707;52.086;5.418;2024-02-21T13:28:13;6.37;;;3.40;;
65936;SDS011;52707;52.086;5.418;2024-02-21T13:30:41;13.80;;;3.35;;
65936;SDS011;52707;52.086;5.418;2024-02-21T13:33:07;11.00;;;3.78;;
65936;SDS011;52707;52.086;5.418;2024-02-21T13:35:36;15.60;;;4.43;;
65936;SDS011;52707;52.086;5.418;2024-02-21T13:38:03;11.18;;;4.35;;
65936;SDS011;52707;52.086;5.418;2024-02-21T13:40:29;9.95;;;3.63;;
65936;SDS011;52707;52.086;5.418;2024-02-21T13:42:56;10.70;;;4.05;;
65936;SDS011;52707;52.086;5.418;2024-02-21T13:45:23;5.55;;;3.70;;
65936;SDS011;52707;52.086;5.418;2024-02-21T13:47:49;11.07;;;3.88;;
65936;SDS011;52707;52.086;5.418;2024-02-21T13:50:16;11.30;;;3.95;;
65936;SDS011;52707;52.086;5.418;2024-02-21T13:52:43;15.63;;;4.03;;
65936;SDS011;52707;52.086;5.418;2024-02-21T13:55:09;7.65;;;3.10;;
65936;SDS011;52707;52.086;5.418;2024-02-21T13:57:36;7.28;;;3.00;;
65936;SDS011;52707;52.086;5.418;2024-02-21T14:00:03;7.18;;;3.15;;
65936;SDS011;52707;52.086;5.418;2024-02-21T14:02:29;9.52;;;3.20;;
65936;SDS011;52707;52.086;5.418;2024-02-21T14:04:56;16.70;;;3.80;;
65936;SDS011;52707;52.086;5.418;2024-02-21T14:07:22;13.32;;;3.17;;
65936;SDS011;52707;52.086;5.418;2024-02-21T14:09:49;9.95;;;3.42;;
65936;SDS011;52707;52.086;5.418;2024-02-21T14:12:15;5.50;;;2.85;;
65936;SDS011;52707;52.086;5.418;2024-02-21T14:14:43;6.50;;;3.42;;
65936;SDS011;52707;52.086;5.418;2024-02-21T14:17:10;7.28;;;3.50;;
65936;SDS011;52707;52.086;5.418;2024-02-21T14:19:36;13.40;;;3.70;;
65936;SDS011;52707;52.086;5.418;2024-02-21T14:22:03;17.00;;;3.72;;
65936;SDS011;52707;52.086;5.418;2024-02-21T14:24:29;6.78;;;3.22;;
65936;SDS011;52707;52.086;5.418;2024-02-21T14:26:55;9.88;;;3.13;;
65936;SDS011;52707;52.086;5.418;2024-02-21T14:29:22;11.18;;;3.25;;
65936;SDS011;52707;52.086;5.418;2024-02-21T14:31:48;11.95;;;3.45;;
65936;SDS011;52707;52.086;5.418;2024-02-21T14:34:15;9.38;;;3.25;;
65936;SDS011;52707;52.086;5.418;2024-02-21T14:36:41;9.60;;;2.83;;
65936;SDS011;52707;52.086;5.418;2024-02-21T14:39:08;6.32;;;3.08;;
65936;SDS011;52707;52.086;5.418;2024-02-21T14:41:34;7.78;;;2.80;;